sensor_id;sensor_type;location;lat;lon;timestamp;P1;durP1;ratioP1;P2;durP2;ratioP2
60873;SDS011;46715;40.642;-7.920;2022-12-07T00:03:22;56.70;;;43.13;;
60873;SDS011;46715;40.642;-7.920;2022-12-07T00:05:23;65.27;;;48.17;;
60873;SDS011;46715;40.642;-7.920;2022-12-07T00:07:24;55.38;;;42.28;;
60873;SDS011;46715;40.642;-7.920;2022-12-07T00:09:25;47.10;;;35.47;;
60873;SDS011;46715;40.642;-7.920;2022-12-07T00:11:26;39.17;;;29.40;;
60873;SDS011;46715;40.642;-7.920;2022-12-07T00:13:27;35.65;;;26.10;;
60873;SDS011;46715;40.642;-7.920;2022-12-07T00:15:28;29.43;;;22.87;;
60873;SDS011;46715;40.642;-7.920;2022-12-07T00:17:28;27.80;;;21.33;;
60873;SDS011;46715;40.642;-7.920;2022-12-07T00:19:29;29.40;;;23.23;;
60873;SDS011;46715;40.642;-7.920;2022-12-07T00:21:31;31.63;;;23.57;;
60873;SDS011;46715;40.642;-7.920;2022-12-07T00:23:33;30.25;;;22.00;;
60873;SDS011;46715;40.642;-7.920;2022-12-07T00:25:34;32.73;;;22.30;;
60873;SDS011;46715;40.642;-7.920;2022-12-07T00:27:35;31.55;;;21.30;;
60873;SDS011;46715;40.642;-7.920;2022-12-07T00:29:36;27.93;;;19.30;;
60873;SDS011;46715;40.642;-7.920;2022-12-07T00:31:37;29.07;;;19.67;;
60873;SDS011;46715;40.642;-7.920;2022-12-07T00:33:41;24.92;;;18.10;;
60873;SDS011;46715;40.642;-7.920;2022-12-07T00:35:41;24.70;;;17.10;;
60873;SDS011;46715;40.642;-7.920;2022-12-07T00:37:42;23.20;;;17.20;;
60873;SDS011;46715;40.642;-7.920;2022-12-07T00:39:43;26.20;;;19.47;;
60873;SDS011;46715;40.642;-7.920;2022-12-07T00:41:46;27.02;;;18.15;;
60873;SDS011;46715;40.642;-7.920;2022-12-07T00:43:47;25.98;;;17.90;;
60873;SDS011;46715;40.642;-7.920;2022-12-07T00:47:49;16.88;;;12.80;;
60873;SDS011;46715;40.642;-7.920;2022-12-07T00:49:50;17.43;;;12.17;;
60873;SDS011;46715;40.642;-7.920;2022-12-07T00:53:53;16.00;;;12.88;;
60873;SDS011;46715;40.642;-7.920;2022-12-07T00:55:54;18.48;;;13.48;;
60873;SDS011;46715;40.642;-7.920;2022-12-07T00:57:56;20.13;;;13.52;;
60873;SDS011;46715;40.642;-7.920;2022-12-07T00:59:57;18.30;;;13.15;;
60873;SDS011;46715;40.642;-7.920;2022-12-07T01:01:58;18.57;;;13.60;;
60873;SDS011;46715;40.642;-7.920;2022-12-07T01:03:59;18.10;;;12.27;;
60873;SDS011;46715;40.642;-7.920;2022-12-07T01:06:03;20.83;;;13.48;;
60873;SDS011;46715;40.642;-7.920;2022-12-07T01:08:04;20.52;;;14.40;;
60873;SDS011;46715;40.642;-7.920;2022-12-07T01:10:06;18.70;;;14.55;;
60873;SDS011;46715;40.642;-7.920;2022-12-07T01:12:08;21.88;;;17.27;;
60873;SDS011;46715;40.642;-7.920;2022-12-07T01:14:09;24.67;;;17.00;;
60873;SDS011;46715;40.642;-7.920;2022-12-07T01:16:10;22.48;;;16.75;;
60873;SDS011;46715;40.642;-7.920;2022-12-07T01:18:14;23.10;;;17.88;;
60873;SDS011;46715;40.642;-7.920;2022-12-07T01:20:14;24.03;;;17.67;;
60873;SDS011;46715;40.642;-7.920;2022-12-07T01:22:16;24.63;;;16.85;;
60873;SDS011;46715;40.642;-7.920;2022-12-07T01:24:16;29.90;;;23.00;;
60873;SDS011;46715;40.642;-7.920;2022-12-07T01:26:18;33.07;;;22.33;;
60873;SDS011;46715;40.642;-7.920;2022-12-07T01:28:21;28.77;;;21.55;;
60873;SDS011;46715;40.642;-7.920;2022-12-07T01:30:22;31.50;;;22.73;;
60873;SDS011;46715;40.642;-7.920;2022-12-07T01:32:23;20.63;;;16.40;;
60873;SDS011;46715;40.642;-7.920;2022-12-07T01:34:24;33.90;;;25.30;;
60873;SDS011;46715;40.642;-7.920;2022-12-07T01:36:26;33.53;;;24.03;;
60873;SDS011;46715;40.642;-7.920;2022-12-07T01:38:26;46.03;;;32.35;;
60873;SDS011;46715;40.642;-7.920;2022-12-07T01:40:28;48.40;;;35.00;;
60873;SDS011;46715;40.642;-7.920;2022-12-07T01:42:28;57.60;;;43.70;;
60873;SDS011;46715;40.642;-7.920;2022-12-07T01:44:29;53.40;;;39.23;;
60873;SDS011;46715;40.642;-7.920;2022-12-07T01:46:32;39.45;;;30.50;;
60873;SDS011;46715;40.642;-7.920;2022-12-07T01:48:35;57.72;;;40.20;;
60873;SDS011;46715;40.642;-7.920;2022-12-07T01:50:39;54.40;;;39.97;;
60873;SDS011;46715;40.642;-7.920;2022-12-07T01:52:42;55.10;;;40.40;;
60873;SDS011;46715;40.642;-7.920;2022-12-07T01:54:46;47.22;;;35.60;;
60873;SDS011;46715;40.642;-7.920;2022-12-07T01:56:50;49.60;;;37.30;;
60873;SDS011;46715;40.642;-7.920;2022-12-07T01:58:53;52.72;;;38.05;;
60873;SDS011;46715;40.642;-7.920;2022-12-07T02:00:56;46.72;;;33.92;;
60873;SDS011;46715;40.642;-7.920;2022-12-07T02:03:00;48.10;;;35.97;;
60873;SDS011;46715;40.642;-7.920;2022-12-07T02:05:09;48.35;;;36.22;;
60873;SDS011;46715;40.642;-7.920;2022-12-07T02:09:11;53.25;;;39.22;;
60873;SDS011;46715;40.642;-7.920;2022-12-07T02:11:12;59.93;;;40.67;;
60873;SDS011;46715;40.642;-7.920;2022-12-07T02:13:17;48.65;;;37.17;;
60873;SDS011;46715;40.642;-7.920;2022-12-07T02:15:21;54.13;;;39.25;;
60873;SDS011;46715;40.642;-7.920;2022-12-07T02:18:29;56.90;;;39.85;;
60873;SDS011;46715;40.642;-7.920;2022-12-07T02:24:56;52.92;;;38.88;;
60873;SDS011;46715;40.642;-7.920;2022-12-07T02:31:27;43.05;;;33.17;;
60873;SDS011;46715;40.642;-7.920;2022-12-07T02:33:35;46.00;;;33.78;;
60873;SDS011;46715;40.642;-7.920;2022-12-07T02:35:41;39.63;;;30.92;;
60873;SDS011;46715;40.642;-7.920;2022-12-07T02:40:11;43.58;;;32.28;;
60873;SDS011;46715;40.642;-7.920;2022-12-07T02:42:23;42.72;;;31.83;;
60873;SDS011;46715;40.642;-7.920;2022-12-07T02:44:35;47.33;;;35.15;;
60873;SDS011;46715;40.642;-7.920;2022-12-07T02:46:44;44.03;;;33.47;;
60873;SDS011;46715;40.642;-7.920;2022-12-07T02:48:51;39.40;;;31.95;;
60873;SDS011;46715;40.642;-7.920;2022-12-07T02:50:54;47.08;;;32.78;;
60873;SDS011;46715;40.642;-7.920;2022-12-07T02:52:55;37.65;;;29.52;;
60873;SDS011;46715;40.642;-7.920;2022-12-07T02:54:56;36.25;;;27.08;;
60873;SDS011;46715;40.642;-7.920;2022-12-07T02:57:00;35.50;;;24.83;;
60873;SDS011;46715;40.642;-7.920;2022-12-07T02:59:26;37.60;;;27.90;;
60873;SDS011;46715;40.642;-7.920;2022-12-07T03:03:42;34.72;;;26.20;;
60873;SDS011;46715;40.642;-7.920;2022-12-07T03:11:12;19.88;;;15.02;;
60873;SDS011;46715;40.642;-7.920;2022-12-07T03:13:30;18.70;;;14.30;;
60873;SDS011;46715;40.642;-7.920;2022-12-07T03:15:35;18.55;;;14.55;;
60873;SDS011;46715;40.642;-7.920;2022-12-07T03:17:43;15.82;;;10.98;;
60873;SDS011;46715;40.642;-7.920;2022-12-07T03:19:46;16.13;;;10.85;;
60873;SDS011;46715;40.642;-7.920;2022-12-07T03:21:52;13.63;;;9.68;;
60873;SDS011;46715;40.642;-7.920;2022-12-07T03:23:58;12.52;;;10.02;;
60873;SDS011;46715;40.642;-7.920;2022-12-07T03:26:03;12.98;;;9.18;;
60873;SDS011;46715;40.642;-7.920;2022-12-07T03:28:08;13.10;;;8.60;;
60873;SDS011;46715;40.642;-7.920;2022-12-07T03:30:16;10.93;;;8.45;;
60873;SDS011;46715;40.642;-7.920;2022-12-07T03:32:22;13.48;;;8.77;;
60873;SDS011;46715;40.642;-7.920;2022-12-07T03:34:32;13.00;;;8.38;;
60873;SDS011;46715;40.642;-7.920;2022-12-07T03:41:14;12.40;;;9.10;;
60873;SDS011;46715;40.642;-7.920;2022-12-07T03:43:20;13.98;;;10.32;;
60873;SDS011;46715;40.642;-7.920;2022-12-07T03:45:23;16.75;;;12.68;;
60873;SDS011;46715;40.642;-7.920;2022-12-07T03:47:42;15.68;;;11.13;;
60873;SDS011;46715;40.642;-7.920;2022-12-07T03:50:03;12.05;;;8.40;;
60873;SDS011;46715;40.642;-7.920;2022-12-07T03:54:48;13.35;;;10.98;;
60873;SDS011;46715;40.642;-7.920;2022-12-07T03:56:55;12.98;;;8.63;;
60873;SDS011;46715;40.642;-7.920;2022-12-07T03:58:58;10.27;;;8.35;;
60873;SDS011;46715;40.642;-7.920;2022-12-07T04:00:58;13.83;;;9.33;;
60873;SDS011;46715;40.642;-7.920;2022-12-07T04:02:59;12.00;;;9.60;;
60873;SDS011;46715;40.642;-7.920;2022-12-07T04:05:00;13.73;;;10.33;;
60873;SDS011;46715;40.642;-7.920;2022-12-07T04:07:01;11.63;;;8.90;;
60873;SDS011;46715;40.642;-7.920;2022-12-07T04:09:03;11.52;;;8.90;;
60873;SDS011;46715;40.642;-7.920;2022-12-07T04:11:04;12.70;;;8.03;;
60873;SDS011;46715;40.642;-7.920;2022-12-07T04:13:05;13.47;;;9.10;;
60873;SDS011;46715;40.642;-7.920;2022-12-07T04:15:06;14.23;;;9.97;;
60873;SDS011;46715;40.642;-7.920;2022-12-07T04:17:08;14.52;;;9.68;;
60873;SDS011;46715;40.642;-7.920;2022-12-07T04:19:09;14.27;;;8.87;;
60873;SDS011;46715;40.642;-7.920;2022-12-07T04:21:10;10.77;;;8.10;;
60873;SDS011;46715;40.642;-7.920;2022-12-07T04:23:11;11.17;;;8.07;;
60873;SDS011;46715;40.642;-7.920;2022-12-07T04:25:11;13.17;;;9.17;;
60873;SDS011;46715;40.642;-7.920;2022-12-07T04:27:12;15.53;;;9.83;;
60873;SDS011;46715;40.642;-7.920;2022-12-07T04:29:14;16.10;;;10.30;;
60873;SDS011;46715;40.642;-7.920;2022-12-07T04:31:16;10.68;;;8.38;;
60873;SDS011;46715;40.642;-7.920;2022-12-07T04:33:16;12.10;;;8.80;;
60873;SDS011;46715;40.642;-7.920;2022-12-07T04:35:17;12.90;;;9.00;;
60873;SDS011;46715;40.642;-7.920;2022-12-07T04:37:19;13.50;;;8.40;;
60873;SDS011;46715;40.642;-7.920;2022-12-07T04:39:23;16.40;;;8.47;;
60873;SDS011;46715;40.642;-7.920;2022-12-07T04:41:29;12.45;;;7.80;;
60873;SDS011;46715;40.642;-7.920;2022-12-07T04:43:30;10.57;;;7.73;;
60873;SDS011;46715;40.642;-7.920;2022-12-07T04:45:31;11.30;;;8.53;;
60873;SDS011;46715;40.642;-7.920;2022-12-07T04:47:31;10.00;;;7.90;;
60873;SDS011;46715;40.642;-7.920;2022-12-07T04:49:32;11.90;;;7.73;;
60873;SDS011;46715;40.642;-7.920;2022-12-07T04:51:33;12.10;;;8.33;;
60873;SDS011;46715;40.642;-7.920;2022-12-07T04:53:34;10.97;;;7.57;;
60873;SDS011;46715;40.642;-7.920;2022-12-07T04:55:35;11.80;;;8.07;;
60873;SDS011;46715;40.642;-7.920;2022-12-07T04:57:39;10.93;;;8.60;;
60873;SDS011;46715;40.642;-7.920;2022-12-07T04:59:40;14.43;;;8.93;;
60873;SDS011;46715;40.642;-7.920;2022-12-07T05:01:41;11.57;;;8.50;;
60873;SDS011;46715;40.642;-7.920;2022-12-07T05:03:42;15.30;;;9.32;;
60873;SDS011;46715;40.642;-7.920;2022-12-07T05:05:43;11.75;;;8.93;;
60873;SDS011;46715;40.642;-7.920;2022-12-07T05:07:44;64.73;;;14.40;;
60873;SDS011;46715;40.642;-7.920;2022-12-07T05:09:45;17.48;;;11.25;;
60873;SDS011;46715;40.642;-7.920;2022-12-07T05:11:46;11.90;;;8.13;;
60873;SDS011;46715;40.642;-7.920;2022-12-07T05:13:48;8.85;;;7.53;;
60873;SDS011;46715;40.642;-7.920;2022-12-07T05:15:49;11.60;;;7.90;;
60873;SDS011;46715;40.642;-7.920;2022-12-07T05:17:50;10.48;;;7.68;;
60873;SDS011;46715;40.642;-7.920;2022-12-07T05:19:52;10.27;;;7.65;;
60873;SDS011;46715;40.642;-7.920;2022-12-07T05:21:53;9.03;;;6.80;;
60873;SDS011;46715;40.642;-7.920;2022-12-07T05:23:54;10.43;;;8.18;;
60873;SDS011;46715;40.642;-7.920;2022-12-07T05:25:56;14.68;;;8.88;;
60873;SDS011;46715;40.642;-7.920;2022-12-07T05:27:57;12.37;;;8.10;;
60873;SDS011;46715;40.642;-7.920;2022-12-07T05:29:58;13.68;;;9.63;;
60873;SDS011;46715;40.642;-7.920;2022-12-07T05:31:58;13.93;;;10.67;;
60873;SDS011;46715;40.642;-7.920;2022-12-07T05:34:00;15.20;;;10.45;;
60873;SDS011;46715;40.642;-7.920;2022-12-07T05:36:00;20.80;;;11.20;;
60873;SDS011;46715;40.642;-7.920;2022-12-07T05:38:07;13.68;;;9.82;;
60873;SDS011;46715;40.642;-7.920;2022-12-07T05:40:08;12.40;;;9.90;;
60873;SDS011;46715;40.642;-7.920;2022-12-07T05:42:10;12.35;;;8.32;;
60873;SDS011;46715;40.642;-7.920;2022-12-07T05:44:13;12.13;;;7.82;;
60873;SDS011;46715;40.642;-7.920;2022-12-07T05:46:15;14.05;;;10.32;;
60873;SDS011;46715;40.642;-7.920;2022-12-07T05:48:15;14.33;;;10.50;;
60873;SDS011;46715;40.642;-7.920;2022-12-07T05:50:16;14.70;;;9.97;;
60873;SDS011;46715;40.642;-7.920;2022-12-07T05:52:18;81.82;;;13.07;;
60873;SDS011;46715;40.642;-7.920;2022-12-07T05:54:18;38.03;;;12.93;;
60873;SDS011;46715;40.642;-7.920;2022-12-07T05:56:19;18.87;;;10.53;;
60873;SDS011;46715;40.642;-7.920;2022-12-07T05:58:20;13.60;;;9.40;;
60873;SDS011;46715;40.642;-7.920;2022-12-07T06:00:40;12.43;;;8.93;;
60873;SDS011;46715;40.642;-7.920;2022-12-07T06:02:40;16.00;;;9.93;;
60873;SDS011;46715;40.642;-7.920;2022-12-07T06:04:43;17.00;;;10.13;;
60873;SDS011;46715;40.642;-7.920;2022-12-07T06:06:47;17.13;;;10.82;;
60873;SDS011;46715;40.642;-7.920;2022-12-07T06:08:48;16.83;;;10.90;;
60873;SDS011;46715;40.642;-7.920;2022-12-07T06:10:48;13.43;;;9.47;;
60873;SDS011;46715;40.642;-7.920;2022-12-07T06:13:09;14.45;;;9.95;;
60873;SDS011;46715;40.642;-7.920;2022-12-07T06:15:10;11.40;;;8.83;;
60873;SDS011;46715;40.642;-7.920;2022-12-07T06:17:13;15.10;;;10.45;;
60873;SDS011;46715;40.642;-7.920;2022-12-07T06:19:14;14.52;;;10.13;;
60873;SDS011;46715;40.642;-7.920;2022-12-07T06:21:15;12.10;;;8.90;;
60873;SDS011;46715;40.642;-7.920;2022-12-07T06:23:16;13.35;;;9.45;;
60873;SDS011;46715;40.642;-7.920;2022-12-07T06:25:16;11.93;;;9.13;;
60873;SDS011;46715;40.642;-7.920;2022-12-07T06:27:17;13.50;;;9.70;;
60873;SDS011;46715;40.642;-7.920;2022-12-07T06:29:18;11.37;;;9.03;;
60873;SDS011;46715;40.642;-7.920;2022-12-07T06:31:19;14.82;;;9.30;;
60873;SDS011;46715;40.642;-7.920;2022-12-07T06:33:20;12.53;;;9.40;;
60873;SDS011;46715;40.642;-7.920;2022-12-07T06:35:21;12.57;;;9.50;;
60873;SDS011;46715;40.642;-7.920;2022-12-07T06:37:22;13.87;;;8.63;;
60873;SDS011;46715;40.642;-7.920;2022-12-07T06:39:26;11.43;;;8.43;;
60873;SDS011;46715;40.642;-7.920;2022-12-07T06:41:28;10.48;;;7.88;;
60873;SDS011;46715;40.642;-7.920;2022-12-07T06:43:29;10.97;;;8.70;;
60873;SDS011;46715;40.642;-7.920;2022-12-07T06:45:30;10.23;;;8.00;;
60873;SDS011;46715;40.642;-7.920;2022-12-07T06:47:31;9.93;;;7.57;;
60873;SDS011;46715;40.642;-7.920;2022-12-07T06:49:31;9.70;;;7.45;;
60873;SDS011;46715;40.642;-7.920;2022-12-07T06:51:33;11.00;;;7.90;;
60873;SDS011;46715;40.642;-7.920;2022-12-07T06:53:36;10.52;;;7.60;;
60873;SDS011;46715;40.642;-7.920;2022-12-07T06:55:37;10.02;;;8.00;;
60873;SDS011;46715;40.642;-7.920;2022-12-07T06:57:38;13.07;;;8.70;;
60873;SDS011;46715;40.642;-7.920;2022-12-07T06:59:39;12.53;;;8.60;;
60873;SDS011;46715;40.642;-7.920;2022-12-07T07:01:39;12.93;;;8.45;;
60873;SDS011;46715;40.642;-7.920;2022-12-07T07:03:40;19.63;;;9.10;;
60873;SDS011;46715;40.642;-7.920;2022-12-07T07:05:42;13.43;;;8.40;;
60873;SDS011;46715;40.642;-7.920;2022-12-07T07:07:43;11.93;;;8.77;;
60873;SDS011;46715;40.642;-7.920;2022-12-07T07:09:44;11.27;;;8.17;;
60873;SDS011;46715;40.642;-7.920;2022-12-07T07:11:45;68.47;;;11.27;;
60873;SDS011;46715;40.642;-7.920;2022-12-07T07:13:45;8.75;;;6.55;;
60873;SDS011;46715;40.642;-7.920;2022-12-07T07:15:47;9.30;;;7.28;;
60873;SDS011;46715;40.642;-7.920;2022-12-07T07:17:47;9.37;;;7.30;;
60873;SDS011;46715;40.642;-7.920;2022-12-07T07:19:48;11.47;;;7.07;;
60873;SDS011;46715;40.642;-7.920;2022-12-07T07:21:49;75.40;;;12.40;;
60873;SDS011;46715;40.642;-7.920;2022-12-07T07:23:50;115.37;;;14.07;;
60873;SDS011;46715;40.642;-7.920;2022-12-07T07:25:50;17.92;;;8.07;;
60873;SDS011;46715;40.642;-7.920;2022-12-07T07:27:51;10.80;;;6.95;;
60873;SDS011;46715;40.642;-7.920;2022-12-07T07:29:52;7.23;;;5.87;;
60873;SDS011;46715;40.642;-7.920;2022-12-07T07:31:53;8.63;;;6.07;;
60873;SDS011;46715;40.642;-7.920;2022-12-07T07:33:54;9.13;;;6.10;;
60873;SDS011;46715;40.642;-7.920;2022-12-07T07:35:54;11.43;;;6.77;;
60873;SDS011;46715;40.642;-7.920;2022-12-07T07:37:55;9.57;;;7.40;;
60873;SDS011;46715;40.642;-7.920;2022-12-07T07:39:56;8.97;;;5.93;;
60873;SDS011;46715;40.642;-7.920;2022-12-07T07:41:57;10.43;;;7.10;;
60873;SDS011;46715;40.642;-7.920;2022-12-07T07:44:00;8.55;;;6.63;;
60873;SDS011;46715;40.642;-7.920;2022-12-07T07:46:01;10.20;;;7.23;;
60873;SDS011;46715;40.642;-7.920;2022-12-07T07:48:04;11.00;;;7.65;;
60873;SDS011;46715;40.642;-7.920;2022-12-07T07:50:05;10.50;;;7.80;;
60873;SDS011;46715;40.642;-7.920;2022-12-07T07:52:06;11.27;;;6.88;;
60873;SDS011;46715;40.642;-7.920;2022-12-07T07:54:07;11.85;;;7.35;;
60873;SDS011;46715;40.642;-7.920;2022-12-07T07:56:08;10.13;;;7.53;;
60873;SDS011;46715;40.642;-7.920;2022-12-07T07:58:09;8.97;;;5.97;;
60873;SDS011;46715;40.642;-7.920;2022-12-07T08:00:13;7.00;;;5.75;;
60873;SDS011;46715;40.642;-7.920;2022-12-07T08:02:16;9.50;;;6.20;;
60873;SDS011;46715;40.642;-7.920;2022-12-07T08:04:19;7.38;;;5.57;;
60873;SDS011;46715;40.642;-7.920;2022-12-07T08:06:19;7.33;;;5.90;;
60873;SDS011;46715;40.642;-7.920;2022-12-07T08:08:20;9.47;;;6.47;;
60873;SDS011;46715;40.642;-7.920;2022-12-07T08:10:21;10.47;;;7.40;;
60873;SDS011;46715;40.642;-7.920;2022-12-07T08:12:22;10.03;;;6.10;;
60873;SDS011;46715;40.642;-7.920;2022-12-07T08:14:22;8.27;;;5.97;;
60873;SDS011;46715;40.642;-7.920;2022-12-07T08:16:24;8.38;;;6.20;;
60873;SDS011;46715;40.642;-7.920;2022-12-07T08:18:25;7.33;;;5.50;;
60873;SDS011;46715;40.642;-7.920;2022-12-07T08:20:29;5.60;;;4.60;;
60873;SDS011;46715;40.642;-7.920;2022-12-07T08:22:31;4.72;;;4.15;;
60873;SDS011;46715;40.642;-7.920;2022-12-07T08:24:35;4.90;;;2.90;;
60873;SDS011;46715;40.642;-7.920;2022-12-07T08:26:36;5.07;;;3.17;;
60873;SDS011;46715;40.642;-7.920;2022-12-07T08:28:37;4.68;;;3.08;;
60873;SDS011;46715;40.642;-7.920;2022-12-07T08:30:38;5.43;;;4.13;;
60873;SDS011;46715;40.642;-7.920;2022-12-07T08:32:39;6.07;;;5.37;;
60873;SDS011;46715;40.642;-7.920;2022-12-07T08:34:40;5.63;;;3.70;;
60873;SDS011;46715;40.642;-7.920;2022-12-07T08:36:41;5.78;;;2.75;;
60873;SDS011;46715;40.642;-7.920;2022-12-07T08:38:42;4.37;;;3.10;;
60873;SDS011;46715;40.642;-7.920;2022-12-07T08:40:43;5.88;;;3.83;;
60873;SDS011;46715;40.642;-7.920;2022-12-07T08:42:52;4.57;;;3.93;;
60873;SDS011;46715;40.642;-7.920;2022-12-07T08:44:54;6.95;;;6.10;;
60873;SDS011;46715;40.642;-7.920;2022-12-07T08:46:58;7.50;;;6.27;;
60873;SDS011;46715;40.642;-7.920;2022-12-07T08:51:11;6.15;;;5.35;;
60873;SDS011;46715;40.642;-7.920;2022-12-07T08:53:13;3.45;;;3.15;;
60873;SDS011;46715;40.642;-7.920;2022-12-07T08:55:14;3.70;;;3.10;;
60873;SDS011;46715;40.642;-7.920;2022-12-07T08:57:15;5.37;;;4.80;;
60873;SDS011;46715;40.642;-7.920;2022-12-07T08:59:18;3.30;;;2.87;;
60873;SDS011;46715;40.642;-7.920;2022-12-07T09:01:20;9.80;;;7.90;;
60873;SDS011;46715;40.642;-7.920;2022-12-07T09:03:21;6.90;;;4.90;;
60873;SDS011;46715;40.642;-7.920;2022-12-07T09:05:22;7.95;;;6.15;;
60873;SDS011;46715;40.642;-7.920;2022-12-07T09:07:23;7.70;;;5.80;;
60873;SDS011;46715;40.642;-7.920;2022-12-07T09:09:25;8.00;;;5.10;;
60873;SDS011;46715;40.642;-7.920;2022-12-07T09:11:26;5.73;;;5.13;;
60873;SDS011;46715;40.642;-7.920;2022-12-07T09:13:27;9.35;;;6.30;;
60873;SDS011;46715;40.642;-7.920;2022-12-07T09:15:32;9.48;;;7.10;;
60873;SDS011;46715;40.642;-7.920;2022-12-07T09:17:33;10.43;;;6.60;;
60873;SDS011;46715;40.642;-7.920;2022-12-07T09:19:36;13.02;;;9.90;;
60873;SDS011;46715;40.642;-7.920;2022-12-07T09:21:37;15.57;;;11.48;;
60873;SDS011;46715;40.642;-7.920;2022-12-07T09:23:38;17.17;;;10.90;;
60873;SDS011;46715;40.642;-7.920;2022-12-07T09:25:39;13.50;;;9.67;;
60873;SDS011;46715;40.642;-7.920;2022-12-07T09:27:40;14.47;;;7.70;;
60873;SDS011;46715;40.642;-7.920;2022-12-07T09:29:42;9.63;;;7.07;;
60873;SDS011;46715;40.642;-7.920;2022-12-07T09:31:42;6.50;;;5.00;;
60873;SDS011;46715;40.642;-7.920;2022-12-07T09:33:43;5.70;;;4.73;;
60873;SDS011;46715;40.642;-7.920;2022-12-07T09:35:48;10.67;;;5.57;;
60873;SDS011;46715;40.642;-7.920;2022-12-07T09:37:50;8.20;;;4.95;;
60873;SDS011;46715;40.642;-7.920;2022-12-07T09:39:50;7.07;;;5.37;;
60873;SDS011;46715;40.642;-7.920;2022-12-07T09:41:51;6.90;;;5.40;;
60873;SDS011;46715;40.642;-7.920;2022-12-07T09:43:53;10.33;;;6.67;;
60873;SDS011;46715;40.642;-7.920;2022-12-07T09:46:12;7.53;;;6.10;;
60873;SDS011;46715;40.642;-7.920;2022-12-07T09:48:32;8.18;;;6.20;;
60873;SDS011;46715;40.642;-7.920;2022-12-07T09:50:39;12.98;;;8.10;;
60873;SDS011;46715;40.642;-7.920;2022-12-07T09:52:40;7.57;;;6.33;;
60873;SDS011;46715;40.642;-7.920;2022-12-07T09:54:44;5.20;;;4.40;;
60873;SDS011;46715;40.642;-7.920;2022-12-07T09:56:48;5.32;;;3.70;;
60873;SDS011;46715;40.642;-7.920;2022-12-07T09:58:50;6.27;;;4.50;;
60873;SDS011;46715;40.642;-7.920;2022-12-07T10:03:08;4.78;;;3.42;;
60873;SDS011;46715;40.642;-7.920;2022-12-07T10:05:15;4.97;;;3.85;;
60873;SDS011;46715;40.642;-7.920;2022-12-07T10:07:22;4.60;;;3.97;;
60873;SDS011;46715;40.642;-7.920;2022-12-07T10:09:25;4.15;;;3.00;;
60873;SDS011;46715;40.642;-7.920;2022-12-07T10:11:27;4.07;;;2.80;;
60873;SDS011;46715;40.642;-7.920;2022-12-07T10:13:36;3.93;;;2.93;;
60873;SDS011;46715;40.642;-7.920;2022-12-07T10:15:52;6.63;;;5.10;;
60873;SDS011;46715;40.642;-7.920;2022-12-07T10:17:54;6.78;;;4.20;;
60873;SDS011;46715;40.642;-7.920;2022-12-07T10:22:29;6.25;;;3.10;;
60873;SDS011;46715;40.642;-7.920;2022-12-07T10:24:32;4.27;;;3.23;;
60873;SDS011;46715;40.642;-7.920;2022-12-07T10:26:38;5.13;;;2.95;;
60873;SDS011;46715;40.642;-7.920;2022-12-07T10:28:47;8.38;;;5.63;;
60873;SDS011;46715;40.642;-7.920;2022-12-07T10:31:02;4.57;;;3.33;;
60873;SDS011;46715;40.642;-7.920;2022-12-07T10:35:50;5.65;;;3.67;;
60873;SDS011;46715;40.642;-7.920;2022-12-07T10:37:51;6.47;;;3.27;;
60873;SDS011;46715;40.642;-7.920;2022-12-07T10:39:54;5.18;;;3.15;;
60873;SDS011;46715;40.642;-7.920;2022-12-07T10:41:59;3.88;;;2.70;;
60873;SDS011;46715;40.642;-7.920;2022-12-07T10:44:02;5.53;;;3.10;;
60873;SDS011;46715;40.642;-7.920;2022-12-07T10:51:09;4.75;;;2.70;;
60873;SDS011;46715;40.642;-7.920;2022-12-07T10:55:54;4.40;;;3.17;;
60873;SDS011;46715;40.642;-7.920;2022-12-07T11:00:35;4.63;;;3.05;;
60873;SDS011;46715;40.642;-7.920;2022-12-07T11:12:11;4.10;;;3.45;;
60873;SDS011;46715;40.642;-7.920;2022-12-07T11:14:36;5.50;;;3.10;;
60873;SDS011;46715;40.642;-7.920;2022-12-07T11:21:32;6.30;;;4.18;;
60873;SDS011;46715;40.642;-7.920;2022-12-07T11:26:01;5.63;;;2.80;;
60873;SDS011;46715;40.642;-7.920;2022-12-07T11:35:48;5.03;;;3.90;;
60873;SDS011;46715;40.642;-7.920;2022-12-07T11:38:16;5.22;;;3.17;;
60873;SDS011;46715;40.642;-7.920;2022-12-07T11:40:24;4.35;;;2.88;;
60873;SDS011;46715;40.642;-7.920;2022-12-07T11:42:37;4.75;;;3.35;;
60873;SDS011;46715;40.642;-7.920;2022-12-07T11:44:48;6.72;;;4.75;;
60873;SDS011;46715;40.642;-7.920;2022-12-07T11:47:02;5.72;;;4.10;;
60873;SDS011;46715;40.642;-7.920;2022-12-07T11:49:12;8.93;;;4.43;;
60873;SDS011;46715;40.642;-7.920;2022-12-07T11:51:36;6.03;;;4.22;;
60873;SDS011;46715;40.642;-7.920;2022-12-07T11:53:41;4.90;;;3.88;;
60873;SDS011;46715;40.642;-7.920;2022-12-07T11:58:10;8.10;;;4.60;;
60873;SDS011;46715;40.642;-7.920;2022-12-07T12:00:51;6.03;;;3.97;;
60873;SDS011;46715;40.642;-7.920;2022-12-07T12:03:03;7.60;;;3.63;;
60873;SDS011;46715;40.642;-7.920;2022-12-07T12:05:21;6.93;;;3.90;;
60873;SDS011;46715;40.642;-7.920;2022-12-07T12:07:24;7.45;;;4.35;;
60873;SDS011;46715;40.642;-7.920;2022-12-07T12:09:35;6.63;;;4.00;;
60873;SDS011;46715;40.642;-7.920;2022-12-07T12:20:04;6.30;;;4.65;;
60873;SDS011;46715;40.642;-7.920;2022-12-07T12:22:46;5.88;;;3.80;;
60873;SDS011;46715;40.642;-7.920;2022-12-07T12:25:19;4.70;;;3.53;;
60873;SDS011;46715;40.642;-7.920;2022-12-07T12:27:30;6.00;;;4.13;;
60873;SDS011;46715;40.642;-7.920;2022-12-07T12:29:39;8.38;;;4.47;;
60873;SDS011;46715;40.642;-7.920;2022-12-07T12:31:43;5.72;;;4.25;;
60873;SDS011;46715;40.642;-7.920;2022-12-07T12:36:44;8.80;;;4.63;;
60873;SDS011;46715;40.642;-7.920;2022-12-07T12:41:11;6.70;;;4.72;;
60873;SDS011;46715;40.642;-7.920;2022-12-07T12:43:50;7.72;;;4.60;;
60873;SDS011;46715;40.642;-7.920;2022-12-07T12:46:15;7.50;;;4.10;;
60873;SDS011;46715;40.642;-7.920;2022-12-07T12:48:37;6.10;;;3.83;;
60873;SDS011;46715;40.642;-7.920;2022-12-07T12:50:38;6.90;;;4.50;;
60873;SDS011;46715;40.642;-7.920;2022-12-07T12:54:57;6.80;;;4.70;;
60873;SDS011;46715;40.642;-7.920;2022-12-07T13:03:29;9.07;;;6.18;;
60873;SDS011;46715;40.642;-7.920;2022-12-07T13:05:32;9.63;;;5.60;;
60873;SDS011;46715;40.642;-7.920;2022-12-07T13:09:51;8.32;;;5.95;;
60873;SDS011;46715;40.642;-7.920;2022-12-07T13:11:56;7.85;;;5.75;;
60873;SDS011;46715;40.642;-7.920;2022-12-07T13:16:41;7.03;;;5.03;;
60873;SDS011;46715;40.642;-7.920;2022-12-07T13:18:42;8.60;;;5.25;;
60873;SDS011;46715;40.642;-7.920;2022-12-07T13:20:47;6.90;;;4.82;;
60873;SDS011;46715;40.642;-7.920;2022-12-07T13:22:49;7.18;;;4.80;;
60873;SDS011;46715;40.642;-7.920;2022-12-07T13:24:59;7.10;;;4.60;;
60873;SDS011;46715;40.642;-7.920;2022-12-07T13:27:12;7.38;;;4.60;;
60873;SDS011;46715;40.642;-7.920;2022-12-07T13:29:17;5.97;;;4.38;;
60873;SDS011;46715;40.642;-7.920;2022-12-07T13:33:32;7.03;;;4.70;;
60873;SDS011;46715;40.642;-7.920;2022-12-07T13:35:36;6.15;;;4.18;;
60873;SDS011;46715;40.642;-7.920;2022-12-07T13:37:38;5.55;;;4.55;;
60873;SDS011;46715;40.642;-7.920;2022-12-07T13:39:45;4.80;;;4.13;;
60873;SDS011;46715;40.642;-7.920;2022-12-07T13:41:50;5.85;;;4.30;;
60873;SDS011;46715;40.642;-7.920;2022-12-07T13:44:26;6.43;;;4.72;;
60873;SDS011;46715;40.642;-7.920;2022-12-07T13:46:24;6.72;;;4.90;;
60873;SDS011;46715;40.642;-7.920;2022-12-07T13:48:48;6.80;;;3.97;;
60873;SDS011;46715;40.642;-7.920;2022-12-07T13:50:54;5.43;;;4.27;;
60873;SDS011;46715;40.642;-7.920;2022-12-07T13:52:59;5.93;;;4.38;;
60873;SDS011;46715;40.642;-7.920;2022-12-07T13:55:11;6.07;;;4.70;;
60873;SDS011;46715;40.642;-7.920;2022-12-07T13:57:18;5.45;;;4.65;;
60873;SDS011;46715;40.642;-7.920;2022-12-07T13:59:21;9.18;;;4.68;;